createdAt,value
2022-08-30T00:00:14.641Z,25.21
2022-08-30T00:01:17.618Z,25.21
2022-08-30T00:02:20.956Z,25.18
2022-08-30T00:03:21.495Z,25.16
2022-08-30T00:04:21.518Z,25.14
2022-08-30T00:05:24.429Z,25.12
2022-08-30T00:06:27.413Z,25.09
2022-08-30T00:07:30.341Z,25.11
2022-08-30T00:08:36.545Z,25.09
2022-08-30T00:09:35.926Z,25.09
2022-08-30T00:10:38.802Z,25.11
2022-08-30T00:11:41.637Z,25.11
2022-08-30T00:12:42.002Z,25.09
2022-08-30T00:13:44.799Z,25.08
2022-08-30T00:14:47.615Z,25.09
2022-08-30T00:15:50.462Z,25.08
2022-08-30T00:16:53.777Z,25.06
2022-08-30T00:17:56.599Z,25.06
2022-08-30T00:18:59.427Z,25.01
2022-08-30T00:20:02.219Z,24.98
2022-08-30T00:21:05.060Z,24.96
2022-08-30T00:22:07.881Z,24.96
2022-08-30T00:23:10.705Z,24.94
2022-08-30T00:24:13.536Z,24.91
2022-08-30T00:25:16.349Z,24.91
2022-08-30T00:26:19.160Z,24.9
2022-08-30T00:27:21.955Z,24.87
2022-08-30T00:28:24.980Z,24.82
2022-08-30T00:29:27.780Z,24.78
2022-08-30T00:30:30.665Z,24.81
2022-08-30T00:31:33.576Z,24.8
2022-08-30T00:32:36.836Z,24.81
2022-08-30T00:33:39.684Z,24.77
2022-08-30T00:34:42.550Z,24.78
2022-08-30T00:35:45.345Z,24.78
2022-08-30T00:36:48.303Z,24.75
2022-08-30T00:37:51.123Z,24.75
2022-08-30T00:38:54.033Z,24.75
2022-08-30T00:39:57.028Z,24.71
2022-08-30T00:41:00.129Z,24.7
2022-08-30T00:42:02.945Z,24.66
2022-08-30T00:43:05.963Z,24.63
2022-08-30T00:44:08.934Z,24.58
2022-08-30T00:45:11.745Z,24.56
2022-08-30T00:46:14.558Z,24.47
2022-08-30T00:47:17.695Z,24.47
2022-08-30T00:48:20.503Z,24.4
2022-08-30T00:49:23.355Z,24.37
2022-08-30T00:50:26.149Z,24.33
2022-08-30T00:51:28.949Z,24.26
2022-08-30T00:52:31.766Z,24.28
2022-08-30T09:20:42.828Z,30.89
2022-08-30T09:22:01.840Z,31.1
2022-08-30T09:34:58.367Z,31.41
2022-08-30T09:36:01.235Z,31.43
2022-08-30T09:37:04.774Z,31.41
2022-08-30T09:38:04.286Z,31.4
2022-08-30T09:39:07.181Z,31.36
2022-08-30T09:40:10.460Z,31.3
2022-08-30T09:41:13.852Z,31.34
2022-08-30T09:42:14.178Z,31.39
2022-08-30T09:43:17.039Z,31.42
2022-08-30T22:14:31.346Z,28.45
